createdAt,value
2022-11-24T00:01:20.943Z,1.98
2022-11-24T00:06:20.452Z,1.55
2022-11-24T00:08:47.636Z,1.52
2022-11-24T00:11:17.957Z,1.58
2022-11-24T00:13:45.234Z,1.63
2022-11-24T00:16:20.580Z,2.42
2022-11-24T00:18:49.095Z,1.38
2022-11-24T00:21:17.399Z,1.42
2022-11-24T00:23:44.850Z,1.17
2022-11-24T00:26:14.527Z,1.08
2022-11-24T00:28:42.677Z,1.08
2022-11-24T00:31:22.834Z,1.45
2022-11-24T00:33:51.365Z,1.40
2022-11-24T00:36:19.523Z,2.80
2022-11-24T00:38:46.518Z,1.58
2022-11-24T00:41:14.075Z,0.88
2022-11-24T00:43:40.889Z,1.63
2022-11-24T00:46:07.800Z,1.75
2022-11-24T00:48:34.771Z,1.75
2022-11-24T00:51:07.512Z,1.60
2022-11-24T00:53:34.600Z,1.40
2022-11-24T00:56:04.002Z,1.23
2022-11-24T00:58:31.675Z,1.70
2022-11-24T05:01:16.875Z,1.60
2022-11-24T05:03:43.623Z,1.98
2022-11-24T05:06:10.396Z,2.63
2022-11-24T05:08:37.155Z,3.20
2022-11-24T05:11:07.826Z,2.20
2022-11-24T05:13:34.599Z,2.75
2022-11-24T05:16:02.245Z,1.65
2022-11-24T05:18:29.083Z,1.63
2022-11-24T05:20:56.323Z,3.10
2022-11-24T05:23:23.053Z,2.00
2022-11-24T05:25:50.532Z,1.65
2022-11-24T05:28:18.713Z,2.65
2022-11-24T05:30:45.935Z,3.38
2022-11-24T05:33:19.019Z,3.50
2022-11-24T05:35:49.907Z,2.60
2022-11-24T05:38:17.486Z,2.30
2022-11-24T05:40:44.659Z,1.70
2022-11-24T05:43:15.815Z,2.58
2022-11-24T05:45:43.139Z,2.45
2022-11-24T05:48:14.906Z,2.92
2022-11-24T05:50:42.328Z,2.63
2022-11-24T05:53:11.660Z,3.65
2022-11-24T05:55:39.758Z,3.30
2022-11-24T05:58:08.435Z,2.53
2022-11-24T06:00:36.780Z,2.65
2022-11-24T06:03:04.069Z,2.65
2022-11-24T06:05:31.250Z,2.25
2022-11-24T06:07:59.589Z,2.85
2022-11-24T06:10:26.913Z,5.05
2022-11-24T06:12:53.816Z,4.00
2022-11-24T06:15:20.546Z,3.15
2022-11-24T06:17:56.882Z,3.55
2022-11-24T06:20:29.813Z,2.60
2022-11-24T06:22:59.018Z,2.67
2022-11-24T06:25:26.314Z,3.17
2022-11-24T06:27:53.047Z,3.50
2022-11-24T06:30:19.890Z,4.25
2022-11-24T06:32:49.774Z,3.85
2022-11-24T06:35:17.136Z,3.15
2022-11-24T06:37:43.948Z,3.65
2022-11-24T06:40:11.074Z,2.88
2022-11-24T06:42:38.177Z,3.13
2022-11-24T06:45:09.086Z,3.50
2022-11-24T06:47:36.871Z,2.95
2022-11-24T06:50:03.989Z,2.78
2022-11-24T06:52:30.698Z,3.00
2022-11-24T06:54:57.582Z,3.33
2022-11-24T06:57:24.410Z,2.72
2022-11-24T06:59:51.270Z,2.60
2022-11-24T07:02:18.039Z,2.08
2022-11-24T07:04:44.834Z,3.15
2022-11-24T07:07:11.705Z,2.55
2022-11-24T07:09:38.487Z,2.85
2022-11-24T07:12:06.009Z,6.25
2022-11-24T07:14:33.310Z,2.53
2022-11-24T07:17:02.452Z,3.00
2022-11-24T07:19:29.273Z,3.05
2022-11-24T16:22:15.960Z,2.00
2022-11-24T16:24:42.757Z,2.60
2022-11-24T16:27:09.808Z,1.73
2022-11-24T16:29:38.554Z,1.83
2022-11-24T16:32:05.899Z,2.10
2022-11-24T16:34:33.036Z,1.33
2022-11-24T16:37:02.049Z,0.90
2022-11-24T16:39:28.805Z,1.52
2022-11-24T16:41:55.523Z,1.60
2022-11-24T16:44:22.320Z,0.70
2022-11-24T16:46:49.174Z,0.40
2022-11-24T16:49:15.962Z,0.77
2022-11-24T16:51:42.789Z,0.80
2022-11-24T16:54:09.869Z,1.00
2022-11-24T16:56:36.783Z,1.67
2022-11-24T16:59:03.624Z,0.90
2022-11-24T17:01:30.887Z,0.57
2022-11-24T17:03:57.772Z,0.57
2022-11-24T17:06:25.364Z,0.28
2022-11-24T17:08:53.028Z,0.85
2022-11-24T17:11:25.137Z,0.47
2022-11-24T17:13:51.978Z,0.88
2022-11-24T17:16:21.090Z,0.60
2022-11-24T17:18:48.325Z,1.25
2022-11-24T17:21:18.380Z,1.65
2022-11-24T17:23:45.635Z,1.05
2022-11-24T17:26:14.808Z,1.05
2022-11-24T17:28:42.225Z,1.92
2022-11-24T17:31:21.666Z,1.50
2022-11-24T17:33:50.147Z,1.45
2022-11-24T17:36:17.312Z,0.88
2022-11-24T17:38:44.122Z,1.70
2022-11-24T17:41:11.731Z,1.85
2022-11-24T17:43:38.581Z,2.38
2022-11-24T17:46:05.891Z,1.52
2022-11-24T17:48:33.186Z,1.20
2022-11-24T17:51:10.037Z,2.28
2022-11-24T17:53:37.755Z,1.45
2022-11-24T17:56:05.333Z,2.25
2022-11-24T17:58:37.190Z,2.58
2022-11-24T18:01:06.680Z,1.40
2022-11-24T18:03:34.079Z,2.58
2022-11-24T18:06:16.426Z,2.08
2022-11-24T18:08:45.358Z,2.60
2022-11-24T18:11:16.133Z,1.30
2022-11-24T18:14:01.130Z,3.20
2022-11-24T18:16:30.990Z,2.25
2022-11-24T18:19:08.347Z,3.38
2022-11-24T18:21:40.184Z,2.08
2022-11-24T19:23:30.730Z,3.22
2022-11-24T19:28:50.941Z,2.53
2022-11-24T19:31:19.292Z,2.88
2022-11-24T19:33:48.619Z,3.47
2022-11-24T19:36:18.369Z,3.97
2022-11-24T19:38:53.447Z,5.60
2022-11-24T19:41:22.780Z,4.93
2022-11-24T19:43:49.905Z,3.95
2022-11-24T19:46:18.662Z,3.65
2022-11-24T19:48:50.193Z,5.47
2022-11-24T19:51:19.952Z,3.28
2022-11-24T19:53:47.102Z,3.83
2022-11-24T19:56:24.830Z,3.08
2022-11-24T19:58:53.247Z,4.72
2022-11-24T20:01:26.604Z,4.63
2022-11-24T20:04:02.324Z,3.25
2022-11-24T20:06:31.878Z,4.22
2022-11-24T20:09:00.512Z,3.88
2022-11-24T20:11:28.312Z,4.53
2022-11-24T20:13:55.678Z,5.30
2022-11-24T20:16:33.353Z,5.20
2022-11-24T20:19:11.843Z,5.50
2022-11-24T20:22:00.026Z,4.63
2022-11-24T20:24:29.852Z,3.78
2022-11-24T20:27:01.776Z,4.53
2022-11-24T20:29:29.321Z,4.22
2022-11-24T20:31:57.161Z,5.68
2022-11-24T20:34:24.495Z,3.35
2022-11-24T20:36:52.890Z,4.43
2022-11-24T20:39:27.858Z,4.18
2022-11-24T20:41:55.846Z,3.53
2022-11-24T20:44:27.070Z,5.18
2022-11-24T20:46:56.732Z,2.60
2022-11-24T20:49:23.738Z,4.25
2022-11-24T20:51:54.415Z,3.33
2022-11-24T20:54:24.740Z,4.10
2022-11-24T20:56:51.674Z,4.40
2022-11-24T20:59:21.581Z,3.28
2022-11-24T21:01:50.134Z,5.80
2022-11-24T21:04:22.779Z,3.78
2022-11-24T21:09:16.536Z,3.70
2022-11-24T21:11:43.575Z,4.18
2022-11-24T21:14:11.071Z,3.83
2022-11-24T21:16:39.873Z,4.07
2022-11-24T21:19:18.956Z,3.15
2022-11-24T21:21:47.577Z,3.78
2022-11-24T21:24:21.586Z,5.32
2022-11-24T21:26:49.156Z,3.72
2022-11-24T21:29:19.140Z,3.88
2022-11-24T21:32:04.428Z,4.38
2022-11-24T21:34:31.149Z,3.03
2022-11-24T21:37:07.103Z,3.25
2022-11-24T21:39:43.486Z,3.38
2022-11-24T21:42:10.520Z,3.47
2022-11-24T21:44:37.388Z,3.20
2022-11-24T21:47:10.268Z,4.05
2022-11-24T21:49:37.139Z,3.90
2022-11-24T21:52:04.086Z,3.92
2022-11-24T21:54:30.954Z,4.15
2022-11-24T21:56:57.687Z,4.72
2022-11-24T21:59:24.485Z,3.88
2022-11-24T22:01:51.332Z,3.28
2022-11-24T22:04:18.216Z,3.20
2022-11-24T22:06:45.162Z,3.67
2022-11-24T22:09:17.559Z,4.63
2022-11-24T22:11:45.148Z,3.53
2022-11-24T22:14:11.937Z,3.25
2022-11-24T22:16:39.081Z,2.92
2022-11-24T22:19:05.946Z,4.15
2022-11-24T22:21:33.772Z,2.53
2022-11-24T22:24:04.242Z,3.83
2022-11-24T22:26:31.285Z,2.60
2022-11-24T22:28:58.507Z,3.15
2022-11-24T22:31:28.103Z,2.92
2022-11-24T22:33:55.662Z,4.45
2022-11-24T22:36:24.743Z,3.13
2022-11-24T22:38:56.723Z,4.28
2022-11-24T22:41:24.290Z,3.17
2022-11-24T22:43:51.483Z,5.30
2022-11-24T22:46:23.782Z,4.45
2022-11-24T22:48:54.883Z,4.57
2022-11-24T22:51:33.431Z,4.18
2022-11-24T22:54:04.500Z,4.13
2022-11-24T22:56:32.538Z,2.65
2022-11-24T22:59:00.642Z,3.72
2022-11-24T23:01:28.849Z,3.33
2022-11-24T23:03:55.723Z,3.28
2022-11-24T23:06:24.950Z,2.95
2022-11-24T23:08:52.617Z,3.55
2022-11-24T23:11:34.888Z,3.20
2022-11-24T23:14:05.689Z,4.18
2022-11-24T23:16:32.566Z,3.20
2022-11-24T23:18:59.547Z,3.58
2022-11-24T23:21:29.151Z,2.92
2022-11-24T23:23:56.641Z,2.33
2022-11-24T23:26:34.696Z,2.72
2022-11-24T23:29:01.660Z,2.88
2022-11-24T23:31:29.745Z,4.10
2022-11-24T23:33:58.608Z,3.63
2022-11-24T23:36:25.945Z,4.55
2022-11-24T23:38:52.830Z,3.78
2022-11-24T23:41:24.456Z,3.28
2022-11-24T23:43:52.432Z,2.78
2022-11-24T23:46:24.407Z,4.22
2022-11-24T23:48:53.266Z,3.05
2022-11-24T23:51:25.481Z,2.85
2022-11-24T23:53:52.606Z,3.97
2022-11-24T23:56:21.551Z,4.18
2022-11-24T23:58:48.906Z,4.90
